Gabriele Tagliabue

Scout - Torino
11 Mär 2027
Donnerstag
Verarbeitung

Persönlichkeit

Anpassungsfähigkeit (14) Ehrgeiz (8) Kontroverse (10) Loyalität (15) Druck (11) Professionalität (10) Fairness (16) Temperament (18)

Profil

Trainerstil Demokratisch
Lizenz Kontinentale Pro
Entschlossenheit 13
Menschenführung 5
Motivation 8
Disziplin 11
Arbeitszufriedenheit
50%
Ermüdung
0%
Rolle Scout
Gehalt 99.0K p/W
Vertrag 14.03.2029

Leistung

Verhalten Normal
Trainingseffektivität
22%
Spielerentwicklung
65%
Verletzungsprävention
30%
Taktische Umsetzung
70%

Letzte Ereignisse

Nahm an einer Scouting-Besprechung teil jetzt
Nahm an einer Scouting-Besprechung teil jetzt
Nahm an einer Scouting-Besprechung teil 7T her
Spieler begutachtet 7T her
Spieler begutachtet 7T her
Spieler begutachtet 7T her
Spieler begutachtet 7T her
Spieler begutachtet 7T her

Aktuell beobachtet

133
Spieler Verein Status Fähigkeit Vertrauen Beobachtet Zuletzt beobachtet Letzte Stimme
Josh Doig Sassuolo Aktiv 130 / 135 40% 2 09.03.2027 -
Roger Fernandes Al-Ittihad Aktiv 134 / 138 40% 1 09.03.2027 -
Maksim Kireev KV Mechelen Aktiv 116 / 133 40% 1 09.03.2027 -
Tobias Slotsager Casertana Aktiv 115 / 111 40% 1 07.03.2027 -
Leonardo Mendicino Bari Aktiv 116 / 119 40% 1 07.03.2027 -
Rabby Nzingoula West Bromwich Albion Aktiv 113 / 123 40% 1 07.03.2027 -
Josh King Chelsea Aktiv 139 / 142 40% 1 06.03.2027 -
Matteo Cichella Frosinone Aktiv 113 / 132 40% 1 06.03.2027 -
Cemran Dansin Orlando Pirates Aktiv 100 / 105 40% 1 06.03.2027 -
Antonio Vergara Napoli Aktiv 139 / 136 40% 3 05.03.2027 -
Ibrahim Maza Bayer Leverkusen Aktiv 147 / 161 40% 1 05.03.2027 -
Anton Kade FC Augsburg Aktiv 129 / 140 40% 1 05.03.2027 -
Dean Huijsen Villarreal Aktiv 145 / 157 40% 1 05.03.2027 -
Nevot Ratner Maccabi Haifa Aktiv 109 / 130 40% 1 05.03.2027 -
Massien Ghaddari Utrecht Aktiv 109 / 122 40% 1 05.03.2027 -
Tommaso Berti Cesena Aktiv 128 / 139 40% 1 03.03.2027 -
Lucas Cepeda Elche Aktiv 131 / 137 40% 1 03.03.2027 -
Sergey Pinyaev Lokomotiv Moscow Aktiv 129 / 138 40% 1 03.03.2027 -
Yoan Bonny Inter Aktiv 140 / 149 40% 3 01.03.2027 -
Terry Devlin Portsmouth Aktiv 119 / 122 40% 1 01.03.2027 -
Samuele Angori Pisa Aktiv 128 / 127 40% 1 01.03.2027 -
Lazar Jovanović Udinese Aktiv 107 / 111 40% 1 03.01.2027 -
Jayden Addai Como Aktiv 136 / 127 40% 1 03.01.2027 -
Pedro Zenit Aktiv 127 / 128 40% 1 03.01.2027 -
Assane Diao Lazio Aktiv 143 / 148 40% 7 02.01.2027 -
Joel Orlando Almagro Verloren 120 / 108 40% 1 02.01.2027 -
Borja Sainz Fiorentina Aktiv 152 / 159 40% 6 31.12.2026 -
Kristian Thorstvedt Sassuolo Aktiv 137 / 122 40% 5 31.12.2026 -
Maxim Glushenkov Zenit Aktiv 137 / 137 40% 2 31.12.2026 -
Marquinhos Spartak Moscow Aktiv 134 / 121 40% 2 29.12.2026 -
Serginho Al Wasl Aktiv 132 / 145 40% 1 29.12.2026 -
Adam Obert Cagliari Aktiv 124 / 131 40% 1 27.12.2026 -
Nuno Tavares Lazio Aktiv 142 / 150 40% 2 26.12.2026 -
Domagoj Bradarić Hellas Verona Aktiv 139 / 134 40% 2 26.12.2026 -
Charles De Ketelaere Atalanta Aktiv 154 / 144 40% 3 24.12.2026 -
Nicolò Zaniolo Udinese Aktiv 139 / 135 40% 1 24.12.2026 -
Unai Gómez Udinese Aktiv 132 / 144 40% 3 23.12.2026 -
Matías Soulé AS Roma Aktiv 156 / 153 40% 2 22.12.2026 -
Sergio Arribas Almería Aktiv 140 / 130 40% 1 22.12.2026 -
Martin Baturina Como Aktiv 133 / 144 40% 3 21.12.2026 -
Cédric Don Maccabi Haifa Aktiv 121 / 111 40% 2 21.12.2026 -
Marlon Gomes Shakhtar Aktiv 138 / 140 40% 1 21.12.2026 -
Williams Manyama SuperSport United Aktiv 118 / 125 40% 1 21.12.2026 -
Christ Inao Oulaï Fiorentina Aktiv 139 / 151 40% 3 20.12.2026 -
Nahuel Ulariaga Hapoel Beer Sheva Aktiv 114 / 131 40% 1 20.12.2026 -
Jesús Rodríguez Como Aktiv 144 / 135 40% 5 19.12.2026 -
Esequiel Barco Spartak Moscow Aktiv 143 / 144 40% 4 19.12.2026 -
Matías Galarza Talleres Aktiv 126 / 110 40% 2 14.12.2026 -
Yago Santiago Racing Santander Aktiv 121 / 130 40% 2 14.12.2026 -
Tomáš Suslov Hellas Verona Aktiv 135 / 126 40% 1 14.12.2026 -
Nazar Voloshyn Dynamo Kyiv Aktiv 133 / 130 40% 1 13.12.2026 -
Ruben van Bommel Ferencvaros Aktiv 136 / 144 40% 1 10.12.2026 -
Gustavo Mantuan Zenit Aktiv 135 / 121 40% 1 10.12.2026 -
Francisco Trincão Zenit Aktiv 160 / 168 40% 1 10.12.2026 -
Antonino Gallo Lecce Aktiv 137 / 134 40% 1 09.12.2026 -
Gustav Isaksen Lazio Aktiv 140 / 156 40% 1 09.12.2026 -
Luís Henrique Inter Aktiv 146 / 132 40% 2 08.12.2026 -
Gianluca Busio Venezia Aktiv 134 / 127 40% 2 08.12.2026 -
Alexis Saelemaekers AC Milan Aktiv 155 / 139 40% 1 08.12.2026 -
Cher Ndour Fiorentina Aktiv 130 / 129 40% 3 05.12.2026 -
Marko Brest Olimpija Ljubljana Aktiv 113 / 124 40% 1 05.12.2026 -
Aidomo Emakhu Oxford United Aktiv 118 / 110 40% 1 05.12.2026 -
Carlos Augusto Inter Aktiv 143 / 138 40% 1 02.12.2026 -
Raoul Bellanova Atalanta Aktiv 152 / 161 40% 1 02.12.2026 -
Tommaso Pobega Bologna Aktiv 145 / 141 40% 2 01.12.2026 -
Lorenzo Ignacchiti Empoli Aktiv 123 / 124 40% 1 30.11.2026 -
Andrea Colpani Monza Aktiv 129 / 121 40% 1 30.11.2026 -
Giacomo Raspadori Atalanta Aktiv 142 / 131 40% 1 30.11.2026 -
Emanuele Valeri Parma Aktiv 140 / 141 40% 2 29.11.2026 -
Simone Trimboli Mantova Aktiv 118 / 130 40% 2 28.11.2026 -
Yan Diomandé Real Madrid Aktiv 154 / 160 40% 2 28.11.2026 -
José Paradela Cruz Azul Aktiv 150 / 156 40% 3 27.11.2026 Beobachten
Morten Frendrup Genoa Aktiv 143 / 141 40% 1 27.11.2026 -
Nicolò Fagioli Fiorentina Aktiv 133 / 139 40% 2 25.11.2026 -
Alan Lescano Argentinos Juniors Aktiv 141 / 113 40% 1 25.11.2026 -
Joaquín Gho Argentinos Juniors Aktiv 130 / 142 40% 1 24.11.2026 -
Armand Laurienté Sassuolo Aktiv 139 / 145 40% 2 22.11.2026 -
Caio Vidal Ludogorets Aktiv 135 / 128 40% 1 22.11.2026 -
Curtis Jones Inter Aktiv 159 / 160 40% 4 21.11.2026 -
Nadir Zortea Bologna Aktiv 137 / 134 40% 4 21.11.2026 -
Thierry Rendall Correia Venezia Aktiv 136 / 133 40% 1 21.11.2026 -
Romano Schmid Frosinone Aktiv 145 / 152 40% 2 20.11.2026 Mehr Infos nötig
Aníbal Moreno River Plate Aktiv 124 / 118 40% 1 20.11.2026 -
Lewis Ferguson Bologna Aktiv 136 / 140 40% 1 19.11.2026 -
Álex Valle Como Aktiv 135 / 135 40% 1 17.11.2026 -
Emirhan İlkhan Cremonese Aktiv 118 / 127 40% 1 17.11.2026 -
Razvan Balasa Crvena Zvezda Aktiv 153 / 141 40% 2 16.11.2026 -
Vinicius Tobias Shakhtar Aktiv 135 / 140 40% 2 15.11.2026 -
Josen Escobar Al Ahli Aktiv 122 / 130 40% 1 15.11.2026 -
Jens Odgaard Bologna Aktiv 132 / 125 40% 1 14.11.2026 -
Manu Koné AS Roma Aktiv 166 / 158 40% 1 09.11.2026 -
Jurgen Ekkelenkamp Udinese Aktiv 131 / 132 40% 1 09.11.2026 -
Juan Velázquez Belgrano Aktiv 118 / 122 40% 1 07.11.2026 -
Griffin Yow New England Revolution Aktiv 131 / 107 40% 1 06.11.2026 -
Felipe Augusto Zenit Aktiv 131 / 124 40% 1 06.11.2026 -
Mikael Egill Ellertsson Genoa Aktiv 129 / 149 40% 1 04.11.2026 -
Djed Spence Inter Aktiv 138 / 153 40% 1 03.11.2026 -
Mandla Erasmus SuperSport United Aktiv 118 / 114 40% 2 30.10.2026 -
Robert FC Copenhagen Aktiv 132 / 144 40% 1 30.10.2026 -
Marco Brescianini Fiorentina Aktiv 142 / 143 40% 1 29.10.2026 -
Jens Petter Hauge Bodo/Glimt Aktiv 135 / 126 40% 1 26.10.2026 -
Liel Abada Charlotte Football Club Aktiv 141 / 125 40% 1 26.10.2026 -
Adrien Truffert Bournemouth Aktiv 146 / 159 40% 2 22.10.2026 -
Ignacio Rodríguez Racing Club Aktiv 132 / 109 40% 1 22.10.2026 -
Nico González Newcastle United Aktiv 158 / 150 40% 1 21.10.2026 -
Stanley Mills Oxford United Aktiv 119 / 110 40% 1 21.10.2026 -
Tino Livramento Newcastle United Aktiv 157 / 144 40% 2 20.10.2026 -
Elliot Anderson Manchester City Aktiv 146 / 146 40% 3 19.10.2026 -
Callum Hudson-Odoi Nottingham Forest Aktiv 155 / 137 40% 1 16.10.2026 -
Carlos Vicente Birmingham Aktiv 144 / 148 40% 1 15.10.2026 -
Boubacar Kamara Aston Villa Aktiv 163 / 168 40% 1 15.10.2026 -
Kimito Nono Sanfrecce Hiroshima Aktiv 125 / 139 40% 1 14.10.2026 -
Kevin Fulham Aktiv 150 / 161 40% 1 11.10.2026 -
Iliman N'Diaye Everton Aktiv 152 / 166 40% 2 10.10.2026 -
Wilson Isidor Sunderland Aktiv 132 / 131 40% 1 10.10.2026 -
Loum Tchaouna Coventry City Aktiv 136 / 128 40% 1 09.10.2026 -
Arthur Atta Fiorentina Aktiv 139 / 132 40% 1 08.10.2026 -
Michael Kayode Brentford Aktiv 146 / 147 40% 1 08.10.2026 -
Georginio Rutter Brighton Aktiv 152 / 146 40% 2 05.10.2026 -
Yeremy Pino Crystal Palace Aktiv 152 / 136 40% 1 05.10.2026 -
Nicolò Cambiaghi Bologna Aktiv 132 / 145 40% 1 05.10.2026 -
Dejan Kulusevski Tottenham Aktiv 164 / 175 40% 1 03.10.2026 -
Erik Lira Cruz Azul Aktiv 134 / 142 40% 1 03.10.2026 -
Marcus Tavernier Bournemouth Aktiv 144 / 131 40% 1 25.09.2026 -
Lucas Da Cunha Como Aktiv 149 / 148 40% 1 25.09.2026 -
Ryan Sessegnon Fulham Aktiv 142 / 139 40% 1 25.09.2026 -
Matt O'Riley Brighton Aktiv 144 / 143 40% 1 24.09.2026 -
Gonzalo Fulham Aktiv 144 / 154 40% 1 21.09.2026 -
Éderson Feyenoord Aktiv 161 / 163 40% 1 14.09.2026 -
Alex Scott Bournemouth Aktiv 148 / 157 40% 1 11.09.2026 -
Vitinha Paris Saint-Germain Aktiv 172 / 171 40% 1 07.09.2026 -
Cody Gakpo Liverpool Aktiv 151 / 151 40% 1 07.09.2026 -
Octavio Ontivero Lanús Aktiv 97 / 95 40% 1 01.08.2026 -